Blue Horizons Flying Club, Inc.

Radar AviationWeather DUATS TFRs Wunderground Accuweather Weather.com

alt : Radar

TAFs

KCLE 210206Z 2102/2206 24008KT 5SM BR SCT008 OVC035
     TEMPO 2102/2104 3SM -SHRA BR SCT008 OVC015
   FM210400 27008KT 6SM BR VCSH OVC015
   FM210800 30010KT 5SM -DZ BR BKN008 OVC015
   FM211500 32012G20KT 6SM BR VCSH OVC015
KFDY 210204Z 2102/2124 28006KT 5SM BR SCT025 OVC050
     TEMPO 2103/2105 SCT015 OVC025
   FM210500 32010KT P6SM OVC015
   FM211400 32012G20KT P6SM SCT015 OVC025
   FM212300 34008KT P6SM OVC035
KTOL 210203Z 2102/2124 27006KT P6SM SCT025 OVC050
     TEMPO 2103/2105 -SHRA SCT012 OVC025
   FM210600 32008KT P6SM OVC015
   FM211400 33012G20KT P6SM SCT015 OVC025
KDTW 210116Z 2101/2206 24010KT P6SM BKN035 OVC070
     TEMPO 2101/2103 5SM -SHRA BKN025 OVC040
   FM210800 32008KT P6SM OVC015
   FM211400 33011G20KT P6SM -SHRA OVC025
   FM211800 34012G21KT P6SM OVC025
   FM212100 34011G19KT P6SM BKN050
KJXN 202340Z 2100/2124 31012G16KT P6SM -DZ OVC025
   FM210100 32008KT P6SM -DZ OVC015
   FM211200 34010KT P6SM BKN025
   FM212100 36010KT P6SM BKN050
KFWA 202321Z 2100/2124 32007KT P6SM SCT030 BKN060
   FM210600 33008KT P6SM OVC030
   FM212100 36010KT P6SM SCT030

METARs

KCLE 210200Z 23006KT 3SM -RA BR SCT007 OVC033 11/10 A2987 RMK AO2 P0001 T01110100 $
KJXN 210156Z VRB06KT 10SM BKN047 OVC065 11/09 A2988 RMK AO2 SLP123 T01060089
KDUH 210155Z AUTO 29003KT 5SM BR SCT032 BKN049 OVC060 12/10 A2986 RMK AO2
KFWA 210154Z 31007KT 10SM FEW020 OVC085 12/08 A2992 RMK AO2 SLP132 T01220083
KDTW 210153Z 26004KT 9SM -RA BKN030 OVC040 11/10 A2985 RMK AO2 RAB00E29B52 SLP111 P0000 T01110100
KFDY 210153Z AUTO 28004KT 4SM BR BKN075 11/09 A2987 RMK AO2 SLP111 T01060094
KTDZ 210153Z AUTO 28006KT 7SM BKN044 OVC060 12/10 A2987 RMK AO2 SLP115 T01170100 TSNO
KTOL 210152Z 27007KT 6SM BR SCT049 BKN060 OVC075 11/09 A2986 RMK AO2 SLP114 T01060094 $

alt : Satellite

alt : TFRs